createdAt,value
2017-12-27T00:00:31.507Z,86.49
2017-12-27T00:02:24.406Z,86.11
2017-12-27T00:03:24.426Z,85.93
2017-12-27T00:05:19.354Z,86.02
2017-12-27T00:06:19.354Z,86.11
2017-12-27T00:08:13.504Z,86.49
2017-12-27T00:09:13.518Z,85.93
2017-12-27T00:11:06.437Z,86.59
2017-12-27T00:12:06.433Z,85.83
2017-12-27T00:13:59.328Z,85.93
2017-12-27T00:14:59.343Z,85.83
2017-12-27T00:16:52.257Z,86.02
2017-12-27T00:17:52.252Z,85.83
2017-12-27T00:19:46.176Z,85.74
2017-12-27T00:20:46.168Z,85.74
2017-12-27T00:22:39.064Z,85.83
2017-12-27T00:23:39.078Z,86.02
2017-12-27T00:25:32.075Z,85.55
2017-12-27T00:26:31.990Z,86.30
2017-12-27T00:28:24.883Z,85.55
2017-12-27T00:29:24.898Z,85.83
2017-12-27T00:31:17.810Z,85.55
2017-12-27T00:32:17.807Z,85.07
2017-12-27T00:34:10.703Z,85.74
2017-12-27T00:35:10.715Z,85.74
2017-12-27T00:37:03.631Z,85.93
2017-12-27T00:38:03.631Z,85.93
2017-12-27T00:39:56.559Z,85.64
2017-12-27T00:40:56.536Z,85.74
2017-12-27T00:42:49.434Z,85.93
2017-12-27T00:43:49.451Z,86.30
2017-12-27T00:45:42.389Z,86.21
2017-12-27T00:46:42.358Z,86.21
2017-12-27T00:48:35.257Z,86.78
2017-12-27T00:49:35.269Z,86.78
2017-12-27T00:51:28.362Z,86.49
2017-12-27T00:52:28.355Z,86.68
2017-12-27T00:54:21.252Z,86.87
2017-12-27T00:55:21.267Z,86.68
2017-12-27T00:57:14.181Z,86.59
2017-12-27T00:58:14.176Z,87.35
2017-12-27T01:00:07.103Z,87.54
2017-12-27T01:01:07.087Z,87.35
2017-12-27T01:03:00.476Z,87.25
2017-12-27T01:04:00.495Z,87.25
2017-12-27T01:05:53.414Z,87.25
2017-12-27T01:06:53.404Z,87.45
2017-12-27T01:08:46.469Z,87.45
2017-12-27T01:09:46.485Z,87.45
2017-12-27T01:11:39.402Z,87.35
2017-12-27T01:12:39.398Z,87.35
2017-12-27T01:14:32.292Z,87.63
2017-12-27T01:15:32.306Z,86.78
2017-12-27T01:17:25.224Z,86.97
2017-12-27T01:18:25.221Z,86.30
2017-12-27T01:20:18.141Z,86.78
2017-12-27T01:21:18.132Z,86.68
2017-12-27T01:23:11.236Z,86.40
2017-12-27T01:24:11.251Z,86.49
2017-12-27T01:26:04.370Z,86.59
2017-12-27T01:27:04.364Z,86.68
2017-12-27T01:28:57.257Z,86.49
2017-12-27T01:29:57.269Z,86.59
2017-12-27T01:31:50.184Z,86.59
2017-12-27T01:32:50.183Z,86.68
2017-12-27T01:34:43.075Z,86.49
2017-12-27T01:35:43.088Z,86.78
2017-12-27T01:37:36.011Z,86.21
2017-12-27T01:38:36.005Z,86.78
2017-12-27T01:40:28.919Z,86.59
2017-12-27T01:41:28.915Z,86.40
2017-12-27T01:43:22.808Z,86.49
2017-12-27T01:44:23.372Z,86.68
2017-12-27T01:46:15.738Z,86.49
2017-12-27T01:47:15.735Z,86.11
2017-12-27T01:49:08.628Z,86.49
2017-12-27T01:50:08.645Z,86.49
2017-12-27T01:52:01.556Z,86.11
2017-12-27T01:53:01.555Z,86.49
2017-12-27T01:54:54.447Z,86.02
2017-12-27T01:55:54.464Z,86.21
2017-12-27T01:57:47.873Z,86.11
2017-12-27T01:58:47.865Z,85.83
2017-12-27T02:00:40.785Z,86.11
2017-12-27T02:01:40.780Z,86.30
2017-12-27T02:03:33.686Z,85.74
2017-12-27T02:04:33.691Z,85.74
2017-12-27T02:06:33.729Z,85.74
2017-12-27T02:07:26.603Z,85.64
2017-12-27T02:09:19.525Z,85.74
2017-12-27T02:10:19.517Z,85.74
2017-12-27T02:12:12.432Z,85.93
2017-12-27T02:13:12.426Z,85.93
2017-12-27T02:15:05.327Z,85.93
2017-12-27T02:16:05.335Z,85.93
2017-12-27T02:17:58.253Z,85.74
2017-12-27T02:18:58.246Z,86.02
2017-12-27T02:20:51.166Z,86.21
2017-12-27T02:21:51.156Z,86.40
2017-12-27T02:23:44.071Z,86.40
2017-12-27T02:24:44.066Z,86.49
2017-12-27T02:26:37.180Z,86.30
2017-12-27T02:27:37.179Z,86.40
2017-12-27T02:29:30.586Z,86.78
2017-12-27T02:30:30.591Z,86.55
2017-12-27T02:32:23.514Z,86.26
2017-12-27T02:33:23.489Z,86.40
2017-12-27T02:35:16.398Z,86.74
2017-12-27T02:36:16.399Z,86.93
2017-12-27T02:38:09.314Z,87.35
2017-12-27T02:39:09.309Z,86.74
2017-12-27T02:41:02.232Z,87.49
2017-12-27T02:42:02.218Z,87.30
2017-12-27T02:43:55.178Z,86.35
2017-12-27T02:44:55.177Z,86.83
2017-12-27T02:46:48.039Z,86.59
2017-12-27T02:47:48.129Z,86.49
2017-12-27T02:49:40.946Z,86.78
2017-12-27T02:50:40.971Z,86.40
2017-12-27T02:52:33.876Z,86.87
2017-12-27T02:53:33.868Z,87.63
2017-12-27T02:55:26.834Z,87.35
2017-12-27T02:56:26.815Z,87.63
2017-12-27T02:58:19.710Z,87.45
2017-12-27T02:59:19.853Z,86.78
2017-12-27T03:01:12.640Z,86.49
2017-12-27T03:02:12.632Z,86.68
2017-12-27T03:04:05.552Z,86.68
2017-12-27T03:05:05.653Z,86.30
2017-12-27T03:06:58.498Z,86.59
2017-12-27T03:07:58.518Z,86.87
2017-12-27T03:09:52.388Z,86.49
2017-12-27T03:10:52.413Z,86.78
2017-12-27T03:12:45.325Z,86.68
2017-12-27T03:13:45.320Z,86.40
2017-12-27T03:15:38.314Z,86.68
2017-12-27T03:16:38.266Z,86.68
2017-12-27T03:18:31.166Z,86.30
2017-12-27T03:19:31.198Z,86.49
2017-12-27T03:21:24.252Z,86.11
2017-12-27T03:22:24.246Z,86.30
2017-12-27T03:24:17.142Z,86.11
2017-12-27T03:25:17.157Z,86.11
2017-12-27T03:27:10.105Z,85.93
2017-12-27T03:28:10.092Z,86.02
2017-12-27T03:30:02.994Z,86.40
2017-12-27T03:31:02.999Z,85.74
2017-12-27T03:32:55.916Z,85.93
2017-12-27T03:33:55.910Z,85.74
2017-12-27T03:35:48.803Z,86.11
2017-12-27T03:36:48.818Z,85.45
2017-12-27T03:38:41.736Z,85.83
2017-12-27T03:39:41.726Z,85.74
2017-12-27T03:41:34.642Z,86.11
2017-12-27T03:42:34.642Z,85.07
2017-12-27T03:44:27.546Z,86.11
2017-12-27T03:45:27.547Z,86.30
2017-12-27T03:47:20.966Z,85.55
2017-12-27T03:48:20.965Z,85.45
2017-12-27T03:50:14.067Z,85.26
2017-12-27T03:51:14.062Z,84.98
2017-12-27T03:53:06.997Z,84.78
2017-12-27T03:54:06.982Z,85.02
2017-12-27T03:55:59.879Z,84.83
2017-12-27T03:56:59.898Z,85.11
2017-12-27T03:58:52.812Z,85.30
2017-12-27T03:59:52.808Z,84.64
2017-12-27T04:01:45.725Z,84.83
2017-12-27T04:02:45.719Z,84.83
2017-12-27T04:04:38.613Z,84.83
2017-12-27T04:05:38.632Z,85.02
2017-12-27T04:07:31.555Z,84.92
2017-12-27T04:08:31.548Z,85.02
2017-12-27T04:10:24.445Z,84.92
2017-12-27T04:11:24.458Z,85.02
2017-12-27T04:13:17.376Z,84.74
2017-12-27T04:14:17.372Z,84.36
2017-12-27T04:16:10.268Z,83.88
2017-12-27T04:17:10.283Z,84.26
2017-12-27T04:19:03.199Z,84.45
2017-12-27T04:20:03.193Z,84.36
2017-12-27T04:21:56.113Z,84.07
2017-12-27T04:22:56.109Z,83.97
2017-12-27T04:24:49.005Z,83.78
2017-12-27T04:25:49.021Z,83.69
2017-12-27T04:27:41.936Z,83.88
2017-12-27T04:28:41.930Z,83.97
2017-12-27T04:30:34.830Z,83.69
2017-12-27T04:31:34.843Z,83.31
2017-12-27T04:33:27.763Z,83.59
2017-12-27T04:34:27.765Z,83.31
2017-12-27T04:36:20.651Z,83.22
2017-12-27T04:37:20.666Z,82.93
2017-12-27T04:39:13.581Z,82.93
2017-12-27T04:40:13.578Z,83.03
2017-12-27T04:42:06.501Z,82.93
2017-12-27T04:43:06.491Z,82.93
2017-12-27T04:44:59.391Z,82.46
2017-12-27T04:45:59.425Z,82.74
2017-12-27T04:47:52.322Z,82.65
2017-12-27T04:48:52.317Z,82.55
2017-12-27T04:50:45.213Z,82.46
2017-12-27T04:51:45.259Z,81.70
2017-12-27T04:53:38.152Z,81.88
2017-12-27T04:54:38.148Z,82.74
2017-12-27T04:56:31.036Z,82.27
2017-12-27T04:57:31.051Z,82.21
2017-12-27T04:59:23.967Z,81.74
2017-12-27T05:00:23.977Z,81.70
2017-12-27T05:02:16.878Z,82.27
2017-12-27T05:03:16.873Z,81.88
2017-12-27T05:05:09.766Z,81.60
2017-12-27T05:06:09.785Z,82.27
2017-12-27T05:08:02.700Z,81.79
2017-12-27T05:09:02.700Z,81.70
2017-12-27T05:10:55.597Z,82.17
2017-12-27T05:11:55.621Z,82.65
2017-12-27T05:13:48.526Z,82.27
2017-12-27T05:14:48.533Z,82.55
2017-12-27T05:16:41.655Z,81.41
2017-12-27T05:17:41.665Z,80.37
2017-12-27T05:19:34.588Z,80.84
2017-12-27T05:20:34.582Z,80.75
2017-12-27T05:22:27.495Z,80.94
2017-12-27T05:23:27.497Z,80.65
2017-12-27T05:25:20.391Z,80.37
2017-12-27T05:26:20.406Z,80.56
2017-12-27T05:28:13.321Z,80.46
2017-12-27T05:29:13.315Z,80.27
2017-12-27T05:31:06.212Z,80.03
2017-12-27T05:32:06.225Z,79.90
2017-12-27T05:33:59.144Z,79.71
2017-12-27T05:34:59.142Z,79.99
2017-12-27T05:36:52.037Z,79.94
2017-12-27T05:37:52.072Z,79.71
2017-12-27T05:39:44.970Z,79.33
2017-12-27T05:40:44.967Z,79.55
2017-12-27T05:42:37.877Z,79.46
2017-12-27T05:43:37.875Z,78.42
2017-12-27T05:45:30.776Z,78.23
2017-12-27T05:46:30.788Z,78.61
2017-12-27T05:48:23.712Z,78.23
2017-12-27T05:49:23.711Z,78.23
2017-12-27T05:51:16.609Z,78.03
2017-12-27T05:52:16.623Z,78.03
2017-12-27T05:54:09.541Z,77.75
2017-12-27T05:55:09.537Z,77.84
2017-12-27T05:57:02.431Z,76.61
2017-12-27T05:58:02.446Z,77.37
2017-12-27T05:59:55.363Z,76.99
2017-12-27T06:00:55.359Z,77.28
2017-12-27T06:02:48.275Z,77.18
2017-12-27T06:03:48.276Z,78.03
2017-12-27T06:05:41.170Z,76.32
2017-12-27T06:06:41.185Z,75.95
2017-12-27T06:08:34.118Z,76.80
2017-12-27T06:09:34.107Z,76.61
2017-12-27T06:11:26.999Z,76.52
2017-12-27T06:12:27.017Z,76.42
2017-12-27T06:14:19.930Z,76.32
2017-12-27T06:15:19.926Z,75.67
2017-12-27T06:17:12.825Z,75.47
2017-12-27T06:18:12.840Z,76.04
2017-12-27T06:20:05.763Z,75.47
2017-12-27T06:21:05.752Z,75.47
2017-12-27T06:22:58.668Z,75.28
2017-12-27T06:23:58.665Z,75.38
2017-12-27T06:25:51.560Z,75.51
2017-12-27T06:26:51.574Z,75.51
2017-12-27T06:28:44.490Z,76.04
2017-12-27T06:29:44.489Z,75.57
2017-12-27T06:31:37.392Z,75.79
2017-12-27T06:32:37.410Z,75.60
2017-12-27T06:34:30.326Z,75.79
2017-12-27T06:35:30.323Z,75.42
2017-12-27T06:37:23.223Z,75.51
2017-12-27T06:38:23.238Z,76.08
2017-12-27T06:40:16.156Z,75.32
2017-12-27T06:41:16.152Z,75.60
2017-12-27T06:43:09.363Z,75.51
2017-12-27T06:44:09.368Z,75.09
2017-12-27T06:46:02.260Z,75.76
2017-12-27T06:47:02.274Z,75.04
2017-12-27T06:48:55.189Z,75.79
2017-12-27T06:49:55.187Z,75.42
2017-12-27T06:51:48.081Z,75.23
2017-12-27T06:52:48.099Z,75.23
2017-12-27T06:54:42.506Z,74.66
2017-12-27T06:55:42.506Z,75.04
2017-12-27T06:57:35.405Z,75.32
2017-12-27T06:58:35.421Z,75.13
2017-12-27T07:00:28.340Z,75.32
2017-12-27T07:01:28.339Z,75.99
2017-12-27T07:03:21.256Z,75.99
2017-12-27T07:04:21.254Z,76.27
2017-12-27T07:06:14.146Z,76.08
2017-12-27T07:07:14.163Z,76.37
2017-12-27T07:09:07.080Z,76.18
2017-12-27T07:10:07.079Z,76.46
2017-12-27T07:11:59.976Z,77.41
2017-12-27T07:12:59.989Z,77.75
2017-12-27T07:14:52.908Z,77.31
2017-12-27T07:15:52.903Z,77.09
2017-12-27T07:17:46.802Z,77.03
2017-12-27T07:18:46.811Z,76.80
2017-12-27T07:20:39.732Z,77.41
2017-12-27T07:21:39.723Z,77.41
2017-12-27T07:23:32.656Z,77.47
2017-12-27T07:24:32.641Z,77.89
2017-12-27T07:26:25.538Z,77.75
2017-12-27T07:27:25.553Z,77.84
2017-12-27T07:29:18.471Z,78.13
2017-12-27T07:30:18.467Z,78.23
2017-12-27T07:32:11.372Z,77.47
2017-12-27T07:33:11.377Z,78.03
2017-12-27T07:35:04.309Z,78.13
2017-12-27T07:36:04.290Z,77.75
2017-12-27T07:37:57.196Z,78.23
2017-12-27T07:38:57.209Z,78.23
2017-12-27T07:40:50.121Z,78.61
2017-12-27T07:41:50.120Z,78.61
2017-12-27T07:43:43.039Z,79.36
2017-12-27T07:44:43.036Z,78.89
2017-12-27T07:46:35.929Z,78.42
2017-12-27T07:47:35.944Z,79.08
2017-12-27T07:49:28.866Z,79.46
2017-12-27T07:50:28.863Z,79.46
2017-12-27T07:52:21.761Z,79.65
2017-12-27T07:53:21.776Z,80.32
2017-12-27T07:55:14.696Z,80.88
2017-12-27T07:56:14.689Z,80.41
2017-12-27T07:58:07.584Z,81.93
2017-12-27T07:59:07.602Z,82.40
2017-12-27T08:01:00.521Z,82.88
2017-12-27T08:02:00.517Z,82.40
2017-12-27T08:03:53.435Z,83.07
2017-12-27T08:04:53.429Z,82.40
2017-12-27T08:06:46.328Z,82.31
2017-12-27T08:07:46.344Z,82.50
2017-12-27T08:09:39.258Z,82.97
2017-12-27T08:10:39.258Z,82.40
2017-12-27T08:12:33.348Z,82.59
2017-12-27T08:13:33.365Z,82.78
2017-12-27T08:15:26.280Z,82.69
2017-12-27T08:16:26.278Z,82.59
2017-12-27T08:18:19.177Z,82.88
2017-12-27T08:19:19.198Z,82.69
2017-12-27T08:21:12.109Z,81.74
2017-12-27T08:22:12.105Z,82.12
2017-12-27T08:24:06.154Z,81.93
2017-12-27T08:25:06.154Z,82.12
2017-12-27T08:26:59.047Z,81.93
2017-12-27T08:27:59.064Z,82.21
2017-12-27T08:29:51.980Z,82.03
2017-12-27T08:30:52.036Z,81.87
2017-12-27T08:32:44.870Z,82.26
2017-12-27T08:33:44.888Z,82.78
2017-12-27T08:35:37.807Z,81.97
2017-12-27T08:36:37.806Z,82.88
2017-12-27T08:38:30.705Z,82.73
2017-12-27T08:39:30.725Z,82.92
2017-12-27T08:41:24.632Z,82.82
2017-12-27T08:42:24.631Z,83.07
2017-12-27T08:44:17.561Z,83.39
2017-12-27T08:45:17.542Z,83.26
2017-12-27T08:47:10.453Z,82.92
2017-12-27T08:48:10.458Z,84.06
2017-12-27T08:50:03.373Z,83.73
2017-12-27T08:51:03.371Z,83.78
2017-12-27T08:52:56.276Z,83.59
2017-12-27T08:53:56.284Z,83.87
2017-12-27T08:55:49.196Z,83.78
2017-12-27T08:56:49.196Z,83.20
2017-12-27T08:58:42.092Z,82.92
2017-12-27T08:59:42.108Z,83.30
2017-12-27T09:01:35.055Z,83.01
2017-12-27T09:02:35.022Z,82.92
2017-12-27T09:04:27.941Z,83.49
2017-12-27T09:05:27.937Z,83.39
2017-12-27T09:07:20.836Z,82.45
2017-12-27T09:08:20.852Z,83.20
2017-12-27T09:10:13.771Z,82.54
2017-12-27T09:11:13.770Z,82.45
2017-12-27T09:13:06.667Z,82.54
2017-12-27T09:14:06.686Z,82.73
2017-12-27T09:15:59.602Z,82.73
2017-12-27T09:16:59.600Z,82.45
2017-12-27T09:18:53.492Z,82.54
2017-12-27T09:19:53.512Z,82.73
2017-12-27T09:21:46.497Z,82.64
2017-12-27T09:22:46.452Z,82.64
2017-12-27T09:24:39.372Z,82.82
2017-12-27T09:25:39.372Z,82.16
2017-12-27T09:27:32.268Z,81.59
2017-12-27T09:28:32.284Z,81.68
2017-12-27T09:30:25.204Z,82.26
2017-12-27T09:31:25.198Z,82.07
2017-12-27T09:33:18.103Z,81.78
2017-12-27T09:34:18.120Z,81.78
2017-12-27T09:36:11.036Z,81.87
2017-12-27T09:37:11.033Z,81.87
2017-12-27T09:39:03.930Z,82.07
2017-12-27T09:40:03.947Z,82.16
2017-12-27T09:41:56.865Z,82.01
2017-12-27T09:42:56.867Z,82.39
2017-12-27T09:44:49.785Z,81.44
2017-12-27T09:45:49.778Z,81.16
2017-12-27T09:47:42.677Z,81.06
2017-12-27T09:48:42.695Z,80.49
2017-12-27T09:50:35.614Z,80.87
2017-12-27T09:51:35.612Z,80.68
2017-12-27T09:53:28.529Z,80.30
2017-12-27T09:54:28.556Z,80.40
2017-12-27T09:56:21.468Z,80.11
2017-12-27T09:57:21.467Z,79.83
2017-12-27T09:59:14.363Z,79.73
2017-12-27T10:00:14.381Z,79.35
2017-12-27T10:02:07.299Z,79.63
2017-12-27T10:03:07.297Z,79.92
2017-12-27T10:05:00.221Z,79.68
2017-12-27T10:06:00.222Z,79.68
2017-12-27T10:07:53.118Z,79.20
2017-12-27T10:08:53.136Z,78.82
2017-12-27T10:10:46.054Z,78.44
2017-12-27T10:11:46.052Z,78.53
2017-12-27T10:13:38.958Z,78.06
2017-12-27T10:14:38.981Z,78.72
2017-12-27T10:16:31.905Z,78.34
2017-12-27T10:17:31.899Z,77.58
2017-12-27T10:19:24.833Z,77.68
2017-12-27T10:20:24.846Z,77.97
2017-12-27T10:22:17.769Z,77.77
2017-12-27T10:23:17.762Z,77.58
2017-12-27T10:25:10.682Z,76.92
2017-12-27T10:26:10.680Z,77.20
2017-12-27T10:28:03.582Z,77.11
2017-12-27T10:29:03.598Z,77.87
2017-12-27T10:30:56.759Z,77.01
2017-12-27T10:31:56.761Z,77.97
2017-12-27T10:33:49.797Z,77.49
2017-12-27T10:34:49.814Z,77.58
2017-12-27T10:36:42.740Z,76.92
2017-12-27T10:37:42.735Z,77.39
2017-12-27T10:39:35.640Z,78.06
2017-12-27T10:40:35.659Z,77.30
2017-12-27T10:42:28.574Z,77.58
2017-12-27T10:43:28.573Z,77.58
2017-12-27T10:45:21.501Z,77.97
2017-12-27T10:46:21.494Z,77.68
2017-12-27T10:48:14.396Z,77.87
2017-12-27T10:49:14.438Z,78.16
2017-12-27T10:51:07.364Z,77.77
2017-12-27T10:52:07.363Z,77.20
2017-12-27T10:54:00.285Z,78.06
2017-12-27T10:55:00.312Z,77.87
2017-12-27T10:56:53.437Z,78.34
2017-12-27T10:57:53.442Z,78.44
2017-12-27T10:59:46.342Z,78.16
2017-12-27T11:00:46.355Z,77.30
2017-12-27T11:02:39.279Z,76.92
2017-12-27T11:03:39.275Z,77.49
2017-12-27T11:05:32.207Z,78.16
2017-12-27T11:06:32.190Z,77.87
2017-12-27T11:08:25.612Z,78.00
2017-12-27T11:09:25.628Z,77.34
2017-12-27T11:11:18.844Z,77.24
2017-12-27T11:12:18.891Z,76.96
2017-12-27T11:14:11.746Z,76.96
2017-12-27T11:15:11.766Z,77.53
2017-12-27T11:17:04.683Z,77.72
2017-12-27T11:18:04.683Z,77.43
2017-12-27T11:19:57.580Z,77.72
2017-12-27T11:20:57.603Z,77.53
2017-12-27T11:22:50.517Z,76.67
2017-12-27T11:23:50.520Z,76.76
2017-12-27T11:25:43.590Z,76.76
2017-12-27T11:26:43.597Z,76.96
2017-12-27T11:28:36.537Z,77.05
2017-12-27T11:29:36.519Z,76.71
2017-12-27T11:31:29.440Z,76.67
2017-12-27T11:32:29.439Z,76.29
2017-12-27T11:34:22.342Z,76.48
2017-12-27T11:35:22.357Z,76.76
2017-12-27T11:37:15.282Z,76.76
2017-12-27T11:38:15.279Z,77.24
2017-12-27T11:40:08.184Z,76.10
2017-12-27T11:41:08.205Z,76.96
2017-12-27T11:43:01.120Z,76.67
2017-12-27T11:44:01.117Z,77.05
2017-12-27T11:45:54.038Z,76.86
2017-12-27T11:46:54.037Z,77.24
2017-12-27T11:48:46.944Z,77.72
2017-12-27T11:49:46.959Z,77.72
2017-12-27T11:51:39.882Z,78.10
2017-12-27T11:52:39.881Z,78.57
2017-12-27T11:54:33.012Z,78.38
2017-12-27T11:55:33.030Z,78.10
2017-12-27T11:57:25.953Z,77.53
2017-12-27T11:58:25.949Z,78.00
2017-12-27T12:00:18.855Z,77.62
2017-12-27T12:01:18.881Z,78.19
2017-12-27T12:03:11.806Z,77.53
2017-12-27T12:04:11.849Z,77.72
2017-12-27T12:06:04.713Z,77.15
2017-12-27T12:07:04.722Z,77.43
2017-12-27T12:08:57.782Z,77.15
2017-12-27T12:09:57.801Z,76.48
2017-12-27T12:11:50.921Z,77.72
2017-12-27T12:12:51.100Z,76.39
2017-12-27T12:14:44.043Z,76.67
2017-12-27T12:15:44.098Z,77.34
2017-12-27T12:17:36.983Z,77.43
2017-12-27T12:18:36.986Z,77.24
2017-12-27T12:20:29.879Z,77.15
2017-12-27T12:21:29.896Z,76.96
2017-12-27T12:23:22.840Z,77.24
2017-12-27T12:24:22.817Z,77.09
2017-12-27T12:26:23.842Z,76.76
2017-12-27T12:27:16.725Z,76.71
2017-12-27T12:29:09.629Z,76.67
2017-12-27T12:30:09.642Z,76.39
2017-12-27T12:32:02.562Z,76.96
2017-12-27T12:33:02.563Z,76.86
2017-12-27T12:34:55.462Z,77.62
2017-12-27T12:35:55.482Z,76.76
2017-12-27T12:37:48.397Z,76.01
2017-12-27T12:38:48.398Z,76.76
2017-12-27T12:40:41.301Z,77.15
2017-12-27T12:41:41.319Z,76.76
2017-12-27T12:43:34.239Z,76.76
2017-12-27T12:44:34.243Z,77.15
2017-12-27T12:46:27.156Z,76.29
2017-12-27T12:47:27.157Z,77.15
2017-12-27T12:49:20.058Z,76.29
2017-12-27T12:50:20.076Z,76.57
2017-12-27T12:52:13.000Z,76.86
2017-12-27T12:53:12.997Z,76.57
2017-12-27T12:55:05.900Z,76.76
2017-12-27T12:56:05.916Z,76.67
2017-12-27T12:57:58.832Z,77.34
2017-12-27T12:58:58.852Z,77.24
2017-12-27T13:00:51.732Z,77.81
2017-12-27T13:01:51.750Z,77.62
2017-12-27T13:03:44.673Z,78.67
2017-12-27T13:04:44.675Z,78.48
2017-12-27T13:06:37.593Z,79.72
2017-12-27T13:07:37.597Z,80.10
2017-12-27T13:09:30.497Z,80.38
2017-12-27T13:10:30.511Z,80.76
2017-12-27T13:12:23.431Z,80.66
2017-12-27T13:13:23.433Z,80.95
2017-12-27T13:15:16.332Z,80.95
2017-12-27T13:16:16.355Z,80.86
2017-12-27T13:18:09.271Z,81.52
2017-12-27T13:19:09.271Z,81.52
2017-12-27T13:21:02.169Z,81.52
2017-12-27T13:22:02.186Z,81.71
2017-12-27T13:23:55.106Z,81.81
2017-12-27T13:24:55.105Z,82.28
2017-12-27T13:26:48.045Z,82.38
2017-12-27T13:27:48.025Z,82.48
2017-12-27T13:29:40.930Z,81.90
2017-12-27T13:30:40.950Z,82.00
2017-12-27T13:32:33.868Z,82.00
2017-12-27T13:33:33.873Z,81.81
2017-12-27T13:35:26.770Z,82.19
2017-12-27T13:36:26.788Z,82.28
2017-12-27T13:38:19.707Z,81.71
2017-12-27T13:39:19.708Z,81.33
2017-12-27T13:41:12.607Z,81.33
2017-12-27T13:42:12.623Z,81.14
2017-12-27T13:44:05.546Z,81.33
2017-12-27T13:45:05.542Z,81.33
2017-12-27T13:46:58.468Z,81.33
2017-12-27T13:47:58.461Z,80.86
2017-12-27T13:49:51.370Z,80.76
2017-12-27T13:50:51.385Z,80.86
2017-12-27T13:52:44.307Z,81.33
2017-12-27T13:53:44.305Z,80.57
2017-12-27T13:55:37.214Z,80.95
2017-12-27T13:56:37.224Z,81.05
2017-12-27T13:58:30.138Z,81.62
2017-12-27T13:59:30.139Z,80.57
2017-12-27T14:01:23.049Z,80.86
2017-12-27T14:02:23.068Z,80.76
2017-12-27T14:04:15.986Z,81.14
2017-12-27T14:05:15.985Z,80.86
2017-12-27T14:07:08.886Z,80.10
2017-12-27T14:08:08.904Z,80.38
2017-12-27T14:10:01.829Z,80.29
2017-12-27T14:11:01.826Z,80.10
2017-12-27T14:12:54.746Z,80.10
2017-12-27T14:13:54.747Z,80.19
2017-12-27T14:15:47.644Z,80.47
2017-12-27T14:16:47.661Z,80.19
2017-12-27T14:18:40.584Z,80.57
2017-12-27T14:19:40.587Z,80.29
2017-12-27T14:21:33.482Z,80.38
2017-12-27T14:22:33.502Z,80.38
2017-12-27T14:24:26.421Z,79.91
2017-12-27T14:25:26.421Z,80.00
2017-12-27T14:27:19.324Z,79.33
2017-12-27T14:28:19.477Z,79.62
2017-12-27T14:30:12.265Z,79.52
2017-12-27T14:31:12.264Z,79.43
2017-12-27T14:33:05.186Z,79.62
2017-12-27T14:34:05.184Z,79.62
2017-12-27T14:35:58.087Z,79.33
2017-12-27T14:36:58.105Z,79.62
2017-12-27T14:38:51.028Z,79.52
2017-12-27T14:39:51.025Z,79.62
2017-12-27T14:41:43.923Z,79.24
2017-12-27T14:42:43.944Z,79.43
2017-12-27T14:44:36.869Z,79.33
2017-12-27T14:45:36.865Z,79.52
2017-12-27T14:47:29.763Z,79.52
2017-12-27T14:48:29.779Z,79.72
2017-12-27T14:50:22.702Z,79.62
2017-12-27T14:51:22.699Z,79.33
2017-12-27T14:53:15.624Z,79.62
2017-12-27T14:54:15.623Z,79.62
2017-12-27T14:56:08.548Z,79.62
2017-12-27T14:57:08.558Z,79.43
2017-12-27T14:59:02.367Z,79.24
2017-12-27T15:00:01.474Z,79.24
2017-12-27T15:01:54.383Z,79.43
2017-12-27T15:02:54.398Z,79.43
2017-12-27T15:04:47.323Z,79.52
2017-12-27T15:05:47.323Z,79.81
2017-12-27T15:07:40.272Z,79.72
2017-12-27T15:08:40.241Z,79.62
2017-12-27T15:10:33.145Z,79.72
2017-12-27T15:11:33.168Z,79.52
2017-12-27T15:13:26.082Z,79.72
2017-12-27T15:14:26.083Z,79.62
2017-12-27T15:16:19.121Z,79.43
2017-12-27T15:17:19.045Z,79.43
2017-12-27T15:19:11.976Z,79.62
2017-12-27T15:20:11.937Z,79.52
2017-12-27T15:22:04.841Z,79.43
2017-12-27T15:23:04.862Z,79.62
2017-12-27T15:24:57.795Z,79.52
2017-12-27T15:25:57.786Z,79.43
2017-12-27T15:27:50.712Z,79.72
2017-12-27T15:28:50.704Z,79.43
2017-12-27T15:30:43.625Z,79.52
2017-12-27T15:31:43.633Z,79.14
2017-12-27T15:33:36.562Z,79.33
2017-12-27T15:34:36.545Z,79.52
2017-12-27T15:36:29.443Z,78.86
2017-12-27T15:37:29.461Z,79.05
2017-12-27T15:39:22.377Z,78.96
2017-12-27T15:40:22.376Z,78.86
2017-12-27T15:42:15.276Z,78.77
2017-12-27T15:43:15.351Z,79.62
2017-12-27T15:45:09.413Z,79.52
2017-12-27T15:46:09.411Z,79.14
2017-12-27T15:48:02.365Z,79.62
2017-12-27T15:49:02.326Z,79.52
2017-12-27T15:50:55.248Z,79.52
2017-12-27T15:51:55.246Z,79.62
2017-12-27T15:53:48.236Z,79.52
2017-12-27T15:54:48.166Z,79.72
2017-12-27T15:56:41.062Z,79.81
2017-12-27T15:57:41.082Z,79.43
2017-12-27T15:59:34.998Z,79.91
2017-12-27T16:00:34.999Z,80.44
2017-12-27T16:02:27.899Z,80.53
2017-12-27T16:03:27.918Z,81.01
2017-12-27T16:05:21.832Z,81.10
2017-12-27T16:06:21.831Z,81.77
2017-12-27T16:08:14.748Z,82.67
2017-12-27T16:09:14.769Z,82.62
2017-12-27T16:11:07.686Z,83.19
2017-12-27T16:12:07.683Z,83.39
2017-12-27T16:14:00.626Z,83.39
2017-12-27T16:15:00.605Z,83.76
2017-12-27T16:16:53.514Z,83.67
2017-12-27T16:17:53.535Z,83.86
2017-12-27T16:19:46.449Z,83.86
2017-12-27T16:20:46.452Z,83.67
2017-12-27T16:22:39.349Z,83.95
2017-12-27T16:23:39.367Z,84.52
2017-12-27T16:25:32.288Z,84.62
2017-12-27T16:26:32.290Z,84.43
2017-12-27T16:28:25.199Z,85.10
2017-12-27T16:29:25.217Z,85.47
2017-12-27T16:31:18.142Z,85.95
2017-12-27T16:32:18.138Z,85.76
2017-12-27T16:34:11.059Z,85.47
2017-12-27T16:35:11.054Z,85.24
2017-12-27T16:37:03.962Z,86.00
2017-12-27T16:38:03.973Z,86.38
2017-12-27T16:39:56.891Z,85.62
2017-12-27T16:40:56.888Z,86.00
2017-12-27T16:42:49.795Z,85.53
2017-12-27T16:43:49.808Z,85.43
2017-12-27T16:45:42.733Z,86.29
2017-12-27T16:46:42.727Z,85.91
2017-12-27T16:48:35.624Z,85.81
2017-12-27T16:49:35.643Z,86.67
2017-12-27T16:51:28.559Z,86.19
2017-12-27T16:52:28.558Z,86.29
2017-12-27T16:54:21.475Z,85.91
2017-12-27T16:55:21.476Z,86.19
2017-12-27T16:57:14.374Z,86.19
2017-12-27T16:58:14.391Z,85.91
2017-12-27T17:00:07.309Z,86.00
2017-12-27T17:01:07.309Z,85.91
2017-12-27T17:03:00.206Z,86.10
2017-12-27T17:04:00.227Z,86.29
2017-12-27T17:05:53.166Z,85.72
2017-12-27T17:06:53.164Z,85.05
2017-12-27T17:08:47.061Z,85.24
2017-12-27T17:09:47.080Z,85.15
2017-12-27T17:11:40.537Z,85.34
2017-12-27T17:12:39.998Z,85.05
2017-12-27T17:14:32.917Z,84.95
2017-12-27T17:15:32.917Z,85.05
2017-12-27T17:17:25.828Z,84.95
2017-12-27T17:18:25.835Z,84.20
2017-12-27T17:20:18.760Z,84.77
2017-12-27T17:21:18.797Z,84.29
2017-12-27T17:23:11.662Z,84.10
2017-12-27T17:24:11.816Z,83.82
2017-12-27T17:26:05.593Z,83.44
2017-12-27T17:27:05.587Z,83.72
2017-12-27T17:28:58.487Z,83.91
2017-12-27T17:29:58.505Z,83.53
2017-12-27T17:31:51.424Z,83.91
2017-12-27T17:32:51.422Z,83.91
2017-12-27T17:34:44.344Z,83.49
2017-12-27T17:35:44.344Z,83.91
2017-12-27T17:37:37.241Z,83.91
2017-12-27T17:38:37.259Z,83.68
2017-12-27T17:40:30.179Z,83.87
2017-12-27T17:41:30.175Z,83.78
2017-12-27T17:43:23.747Z,84.44
2017-12-27T17:44:23.093Z,84.06
2017-12-27T17:46:17.003Z,84.72
2017-12-27T17:47:17.003Z,84.53
2017-12-27T17:49:09.900Z,84.82
2017-12-27T17:50:09.917Z,84.44
2017-12-27T17:52:02.835Z,84.44
2017-12-27T17:53:02.834Z,84.82
2017-12-27T17:54:55.747Z,85.01
2017-12-27T17:55:55.743Z,84.91
2017-12-27T17:57:48.645Z,84.82
2017-12-27T17:58:48.663Z,85.01
2017-12-27T18:00:41.577Z,84.82
2017-12-27T18:01:41.577Z,84.91
2017-12-27T18:03:34.473Z,84.87
2017-12-27T18:04:34.491Z,85.01
2017-12-27T18:06:27.409Z,85.16
2017-12-27T18:07:27.408Z,85.06
2017-12-27T18:09:20.306Z,85.20
2017-12-27T18:10:20.320Z,85.06
2017-12-27T18:12:13.235Z,85.53
2017-12-27T18:13:13.235Z,85.53
2017-12-27T18:15:06.253Z,85.44
2017-12-27T18:16:06.172Z,86.11
2017-12-27T18:17:59.141Z,85.72
2017-12-27T18:18:59.228Z,86.11
2017-12-27T18:20:51.987Z,85.72
2017-12-27T18:21:51.984Z,85.82
2017-12-27T18:23:44.939Z,86.39
2017-12-27T18:24:44.949Z,86.49
2017-12-27T18:26:37.810Z,86.01
2017-12-27T18:27:37.828Z,86.20
2017-12-27T18:29:30.706Z,86.20
2017-12-27T18:30:30.722Z,86.39
2017-12-27T18:32:23.635Z,86.30
2017-12-27T18:33:23.638Z,86.30